Vremea acum in Jibou - Romania

Vrei sa afli care e starea vremii acum in Salaj - Romania? Dorim sa iti furnizam starea vremii pentru Salaj - Romania. Starea vremii Salaj - Romania pentru astazi.

Vremea acum in Jibou

Temperatura: 11.2 °C

Este: Senin
Se simte ca: 10.7 °C
Innorat: 0 %
Precipitatii: 0 %
Presiune atmosferica: 1017 hPa
Umiditate: 58%
Vizibilitate: 10 km
Vantul bate din SSW cu 6.8 km/h

Evolutia vremii in Jibou pe ore

Ora: 04:00
Senin
Temperatura: 10.1°C
Sansa de precipitatii: 0%
Ora Descriere Temp Se simte Precipitatii Umiditate Vant
00:00Senin11.6°11°0%71%SSW 7.2 KM/H
01:00Senin11.2°10.5°0%58%SSW 6.8 KM/H
02:00Senin10.7°10.1°0%72%SSW 6.8 KM/H
03:00Senin10.4°9.9°0%73%SSW 5.8 KM/H
04:00Senin10.1°9.7°0%73%S 5.4 KM/H
05:00Senin9.8°9.3°0%73%S 5.8 KM/H
06:00Senin9.5°8.9°0%74%SSE 5.8 KM/H
07:00Senin10.2°9.8°0%74%SSE 5.4 KM/H
08:00Senin13°13.1°0%68%SE 5.4 KM/H
09:00Senin15.5°15.5°0%61%ESE 6.8 KM/H
10:00Senin17.5°17.5°0%56%ESE 7.9 KM/H
11:00Senin19.4°19.4°0%52%ESE 9 KM/H
12:00Senin20.8°20.8°0%48%ESE 10.1 KM/H
13:00Senin21.9°21.9°0%45%ESE 9.7 KM/H
14:00Senin22.6°24.3°0%42%ESE 8.6 KM/H
15:00Senin23.1°24.4°0%41%ESE 7.2 KM/H
16:00Senin23.5°24.6°0%41%E 6.1 KM/H
17:00Senin23.3°24.5°0%41%E 5.8 KM/H
18:00Senin22.8°24.5°0%45%E 4 KM/H
19:00Senin21.6°21.6°0%55%E 2.9 KM/H
20:00Senin19.4°19.4°0%58%SSE 1.1 KM/H
21:00Patchy rain nearby16.3°16.3°100%63%SW 3.6 KM/H
22:00Senin15°15.4°0%68%SW 5 KM/H
23:00Senin14.2°14.2°0%70%SSW 6.5 KM/H




tutorials